Time;durP1;ratioP1;P1;durP2;ratioP2;P2;SDS_P1;SDS_P2;PMS_P1;PMS_P2;Temp;Humidity;BMP_temperature;BMP_pressure;BME280_temperature;BME280_humidity;BME280_pressure;Samples;Min_cycle;Max_cycle;Signal;HPM_P1;HPM_P2
2023/07/29 00:00:47;;;;;;;26.38;24.33;;;18.10;99.90;;;;;;5032681;28;20049;-81
2023/07/29 00:03:13;;;;;;;29.65;26.88;;;18.10;99.90;;;;;;5016540;28;20033;-81
2023/07/29 00:05:39;;;;;;;22.08;20.33;;;18.10;99.90;;;;;;5016330;28;20533;-83
2023/07/29 00:08:05;;;;;;;29.42;26.92;;;18.10;99.90;;;;;;5016366;28;20040;-81
2023/07/29 00:10:37;;;;;;;30.30;27.70;;;18.10;99.90;;;;;;5032608;28;20480;-81
2023/07/29 00:13:03;;;;;;;23.85;21.70;;;18.10;99.90;;;;;;5032340;28;20041;-81
2023/07/29 00:15:29;;;;;;;24.10;22.15;;;18.20;99.90;;;;;;5016345;28;20046;-82
2023/07/29 00:17:55;;;;;;;23.00;21.17;;;18.20;99.90;;;;;;5033615;28;20054;-81
2023/07/29 00:20:20;;;;;;;22.52;20.67;;;18.20;99.90;;;;;;5032435;28;20041;-81
2023/07/29 00:22:46;;;;;;;21.40;19.38;;;18.20;99.90;;;;;;5032368;28;20037;-82
2023/07/29 00:25:12;;;;;;;20.88;19.05;;;18.20;99.90;;;;;;5015857;28;20033;-81
2023/07/29 00:27:37;;;;;;;23.67;21.60;;;18.20;99.90;;;;;;5031952;28;20044;-81
2023/07/29 00:30:04;;;;;;;15.82;13.20;;;18.20;99.90;;;;;;5015769;28;20045;-81
2023/07/29 00:32:31;;;;;;;27.73;25.02;;;18.20;99.90;;;;;;5032216;28;20041;-81
2023/07/29 00:34:56;;;;;;;15.93;14.32;;;18.30;99.90;;;;;;5033760;28;20136;-81
2023/07/29 00:37:22;;;;;;;27.00;24.70;;;18.20;99.90;;;;;;5032063;28;20531;-81
2023/07/29 00:39:47;;;;;;;25.40;23.17;;;18.20;99.90;;;;;;5032150;28;20384;-81
2023/07/29 00:42:13;;;;;;;15.07;13.60;;;18.20;99.90;;;;;;5031599;28;20049;-81
2023/07/29 00:44:39;;;;;;;22.48;20.17;;;18.10;99.90;;;;;;5031926;28;20034;-81
2023/07/29 00:47:05;;;;;;;18.52;16.80;;;18.10;99.90;;;;;;5031872;28;20404;-81
2023/07/29 00:49:32;;;;;;;30.50;28.25;;;18.10;99.90;;;;;;5032016;28;20037;-81
2023/07/29 00:51:58;;;;;;;15.80;13.40;;;18.00;99.90;;;;;;5031826;28;20068;-81
2023/07/29 00:54:23;;;;;;;27.52;25.10;;;18.00;99.90;;;;;;5031475;28;20049;-81
2023/07/29 00:56:49;;;;;;;30.67;28.33;;;17.90;99.90;;;;;;5033093;28;20087;-81
2023/07/29 00:59:15;;;;;;;24.17;21.92;;;17.90;99.90;;;;;;5031700;28;20037;-82
2023/07/29 01:01:41;;;;;;;30.75;28.42;;;17.80;99.90;;;;;;5015032;28;20049;-81
2023/07/29 01:04:07;;;;;;;39.42;36.05;;;17.80;99.90;;;;;;5032685;28;20052;-81
2023/07/29 01:06:51;;;;;;;22.60;20.38;;;17.80;99.90;;;;;;5032765;28;20041;-82
2023/07/29 01:09:39;;;;;;;38.03;35.33;;;17.70;99.90;;;;;;5031064;28;20063;-81
2023/07/29 01:12:05;;;;;;;34.80;32.17;;;17.70;99.90;;;;;;5031420;28;20094;-81
2023/07/29 01:14:51;;;;;;;37.65;34.83;;;17.70;99.90;;;;;;5031329;28;20045;-81
2023/07/29 01:17:25;;;;;;;44.13;41.05;;;17.70;99.90;;;;;;5031370;28;20080;-81
2023/07/29 01:20:00;;;;;;;34.03;31.55;;;17.60;99.90;;;;;;5031037;28;20049;-81
2023/07/29 01:22:27;;;;;;;34.88;32.22;;;17.60;99.90;;;;;;5031585;28;20045;-82
2023/07/29 01:24:53;;;;;;;34.28;31.48;;;17.60;99.90;;;;;;5030963;28;20068;-81
2023/07/29 01:27:18;;;;;;;39.63;36.72;;;17.50;99.90;;;;;;5031172;28;20083;-81
2023/07/29 01:29:44;;;;;;;32.90;30.23;;;17.50;99.90;;;;;;5031139;28;20040;-81
2023/07/29 01:32:42;;;;;;;38.03;35.05;;;17.40;99.90;;;;;;5031096;28;20041;-81
2023/07/29 01:35:28;;;;;;;31.10;28.63;;;17.40;99.90;;;;;;5025691;28;20388;-81
2023/07/29 01:38:13;;;;;;;38.97;36.03;;;17.40;99.90;;;;;;5030487;28;20393;-81
2023/07/29 01:40:40;;;;;;;28.00;25.55;;;17.40;99.90;;;;;;5030798;28;20124;-81
2023/07/29 01:43:08;;;;;;;46.35;43.00;;;17.30;99.90;;;;;;5031097;28;20056;-81
2023/07/29 01:45:37;;;;;;;38.67;35.67;;;17.30;99.90;;;;;;5030788;28;20037;-81
2023/07/29 01:48:05;;;;;;;38.28;35.30;;;17.20;99.90;;;;;;5032132;28;20033;-81
2023/07/29 01:50:31;;;;;;;22.30;20.38;;;17.20;99.90;;;;;;5031887;28;20483;-81
2023/07/29 01:52:57;;;;;;;50.85;47.33;;;17.10;99.90;;;;;;5030217;28;20480;-82
2023/07/29 01:55:23;;;;;;;31.10;28.50;;;17.10;99.90;;;;;;5032034;28;20043;-81
2023/07/29 01:57:49;;;;;;;41.38;38.22;;;17.00;99.90;;;;;;5030811;28;20044;-81
2023/07/29 02:00:15;;;;;;;36.22;33.53;;;17.00;99.90;;;;;;5030486;28;20176;-81
2023/07/29 02:02:41;;;;;;;48.10;44.85;;;16.90;99.90;;;;;;5030616;28;20041;-82
2023/07/29 02:05:07;;;;;;;38.35;35.58;;;16.90;99.90;;;;;;5030420;28;20055;-82
2023/07/29 02:07:32;;;;;;;41.65;38.60;;;16.90;99.90;;;;;;5030063;28;20034;-81
2023/07/29 02:09:58;;;;;;;42.38;38.70;;;16.90;99.90;;;;;;5030700;28;20037;-81
2023/07/29 02:12:24;;;;;;;36.67;33.85;;;16.80;99.90;;;;;;5030454;28;20480;-81
2023/07/29 02:14:49;;;;;;;39.78;36.67;;;16.90;99.90;;;;;;5031275;28;20030;-81
2023/07/29 02:17:15;;;;;;;33.28;30.45;;;16.90;99.90;;;;;;5031536;28;20064;-81
2023/07/29 02:19:41;;;;;;;39.35;36.45;;;16.90;99.90;;;;;;5030089;28;20515;-82
2023/07/29 02:22:06;;;;;;;46.63;43.35;;;16.90;99.90;;;;;;5013529;28;20045;-81
2023/07/29 02:24:32;;;;;;;47.55;44.25;;;16.80;99.90;;;;;;5030360;28;20058;-81
2023/07/29 02:26:58;;;;;;;46.15;42.90;;;16.90;99.90;;;;;;5031556;28;20484;-81
2023/07/29 02:29:24;;;;;;;39.53;36.58;;;16.90;99.90;;;;;;5031506;28;20076;-82
2023/07/29 02:31:50;;;;;;;48.05;44.38;;;16.80;99.90;;;;;;5030308;28;20041;-81
2023/07/29 02:34:16;;;;;;;44.45;41.35;;;16.90;99.90;;;;;;5030141;28;20037;-81
2023/07/29 02:36:42;;;;;;;43.28;39.97;;;16.90;99.90;;;;;;5029722;28;20527;-81
2023/07/29 02:39:07;;;;;;;40.25;37.30;;;17.00;99.90;;;;;;5030112;28;20042;-82
2023/07/29 02:41:33;;;;;;;39.05;36.22;;;17.00;99.90;;;;;;5030029;28;20045;-81
2023/07/29 02:43:59;;;;;;;36.72;34.10;;;17.00;99.90;;;;;;5030043;28;20519;-81
2023/07/29 02:46:24;;;;;;;50.30;46.92;;;17.00;99.90;;;;;;5030322;28;20041;-81
2023/07/29 02:48:50;;;;;;;47.13;44.08;;;17.00;99.90;;;;;;5030001;28;20033;-81
2023/07/29 02:51:16;;;;;;;47.53;44.20;;;17.00;99.90;;;;;;5031090;28;20507;-81
2023/07/29 02:53:42;;;;;;;28.70;26.38;;;16.90;99.90;;;;;;5031394;28;20048;-82
2023/07/29 02:56:09;;;;;;;36.88;34.20;;;16.90;99.90;;;;;;5013458;28;20076;-81
2023/07/29 02:58:36;;;;;;;36.42;33.65;;;16.90;99.90;;;;;;5031389;28;20498;-81
2023/07/29 03:01:05;;;;;;;45.28;42.25;;;16.90;99.90;;;;;;5029943;28;20511;-81
2023/07/29 03:03:31;;;;;;;42.75;39.90;;;16.80;99.90;;;;;;5013772;28;20037;-81
2023/07/29 03:06:02;;;;;;;34.80;32.35;;;16.80;99.90;;;;;;5012991;28;20543;-81
2023/07/29 03:08:28;;;;;;;29.63;27.42;;;16.80;99.90;;;;;;5030183;28;20373;-81
2023/07/29 03:10:55;;;;;;;48.17;44.80;;;16.80;99.90;;;;;;5031148;28;20044;-81
2023/07/29 03:13:21;;;;;;;43.67;40.55;;;16.80;99.90;;;;;;5013321;28;20037;-81
2023/07/29 03:15:46;;;;;;;34.35;31.95;;;16.90;99.90;;;;;;5029777;28;20045;-81
2023/07/29 03:18:12;;;;;;;52.20;48.70;;;16.90;99.90;;;;;;5030670;28;20416;-81
2023/07/29 03:20:38;;;;;;;52.40;48.88;;;16.90;99.90;;;;;;5030695;28;20435;-81
2023/07/29 03:23:03;;;;;;;43.30;40.40;;;16.90;99.90;;;;;;5029917;28;20564;-81
2023/07/29 03:25:29;;;;;;;33.28;30.88;;;16.90;99.90;;;;;;5031028;28;20587;-81
2023/07/29 03:27:55;;;;;;;30.45;28.10;;;16.90;99.90;;;;;;5016464;28;20128;-81
2023/07/29 03:30:21;;;;;;;47.10;43.80;;;16.90;99.90;;;;;;5033451;28;20080;-81
2023/07/29 03:32:48;;;;;;;44.83;41.33;;;16.90;99.90;;;;;;5016744;28;20076;-82
2023/07/29 03:35:14;;;;;;;52.35;48.45;;;16.80;99.90;;;;;;5016570;28;20503;-81
2023/07/29 03:37:40;;;;;;;34.97;32.33;;;16.80;99.90;;;;;;5033391;28;20042;-81
2023/07/29 03:40:07;;;;;;;48.10;45.17;;;16.70;99.90;;;;;;5033276;28;20508;-82
2023/07/29 03:42:33;;;;;;;47.67;44.28;;;16.70;99.90;;;;;;5033394;28;20046;-81
2023/07/29 03:44:58;;;;;;;48.53;45.35;;;16.70;99.90;;;;;;5034368;28;20044;-81
2023/07/29 03:47:24;;;;;;;38.88;36.17;;;16.70;99.90;;;;;;5033017;28;20033;-81
2023/07/29 03:49:50;;;;;;;40.42;37.47;;;16.60;99.90;;;;;;5016358;28;20125;-81
2023/07/29 03:52:15;;;;;;;42.20;39.35;;;16.60;99.90;;;;;;5033000;28;20038;-81
2023/07/29 03:54:41;;;;;;;41.60;38.92;;;16.60;99.90;;;;;;5034299;28;20191;-81
2023/07/29 03:57:07;;;;;;;43.83;40.97;;;16.50;99.90;;;;;;5032914;28;20048;-81
2023/07/29 03:59:33;;;;;;;40.13;37.13;;;16.60;99.90;;;;;;5034235;28;20488;-81
2023/07/29 04:01:58;;;;;;;56.88;53.25;;;16.50;99.90;;;;;;5032616;28;20124;-81
2023/07/29 04:04:24;;;;;;;43.25;40.35;;;16.50;99.90;;;;;;5032490;28;20087;-81
2023/07/29 04:06:49;;;;;;;39.53;36.92;;;16.50;99.90;;;;;;5032676;28;20033;-81
2023/07/29 04:09:15;;;;;;;36.45;33.72;;;16.50;99.90;;;;;;5034078;28;20506;-82
2023/07/29 04:11:41;;;;;;;47.20;44.13;;;16.50;99.90;;;;;;5016108;28;20549;-81
2023/07/29 04:14:06;;;;;;;35.33;32.53;;;16.60;99.90;;;;;;5032610;28;20048;-81
2023/07/29 04:16:32;;;;;;;38.05;35.20;;;16.50;99.90;;;;;;5016271;28;20029;-81
2023/07/29 04:18:58;;;;;;;26.73;24.75;;;16.60;99.90;;;;;;5015368;28;20128;-82
2023/07/29 04:21:23;;;;;;;49.35;46.15;;;16.70;99.90;;;;;;5033681;28;20118;-81
2023/07/29 04:23:49;;;;;;;39.92;37.30;;;16.60;99.90;;;;;;5033635;28;20079;-81
2023/07/29 04:26:14;;;;;;;43.88;41.17;;;16.50;99.90;;;;;;5015873;28;20052;-82
2023/07/29 04:28:40;;;;;;;37.03;34.15;;;16.70;99.90;;;;;;5032430;28;20052;-81
2023/07/29 04:31:06;;;;;;;28.58;26.45;;;16.70;99.90;;;;;;5032518;28;20487;-81
2023/07/29 04:33:31;;;;;;;43.40;40.38;;;16.70;99.90;;;;;;5032051;28;20483;-81
2023/07/29 04:35:57;;;;;;;43.97;41.15;;;16.80;99.90;;;;;;5033619;28;20072;-81
2023/07/29 04:38:30;;;;;;;45.60;42.58;;;16.80;99.90;;;;;;5031545;28;20120;-81
2023/07/29 04:40:55;;;;;;;51.13;47.90;;;16.90;99.90;;;;;;5032148;28;20076;-82
2023/07/29 04:43:21;;;;;;;47.35;44.25;;;17.00;99.90;;;;;;5033542;28;20124;-81
2023/07/29 04:45:47;;;;;;;25.90;23.83;;;17.10;99.90;;;;;;5031918;28;20091;-81
2023/07/29 04:48:12;;;;;;;36.45;33.83;;;17.10;99.90;;;;;;5031490;28;20040;-82
2023/07/29 04:50:38;;;;;;;43.75;40.95;;;17.30;99.90;;;;;;5032018;28;20060;-82
2023/07/29 04:53:04;;;;;;;36.00;33.67;;;17.40;99.90;;;;;;5031848;28;20041;-82
2023/07/29 04:55:29;;;;;;;23.83;22.10;;;17.50;99.90;;;;;;5031792;28;20038;-82
2023/07/29 04:57:55;;;;;;;35.75;33.15;;;17.50;99.90;;;;;;5015348;28;20042;-82
2023/07/29 05:00:20;;;;;;;32.72;30.58;;;17.60;99.90;;;;;;5031530;28;20067;-82
2023/07/29 05:02:46;;;;;;;14.95;13.27;;;17.60;99.90;;;;;;5015058;28;20045;-81
2023/07/29 05:05:12;;;;;;;20.23;18.70;;;17.60;99.90;;;;;;5031601;28;20048;-81
2023/07/29 05:07:37;;;;;;;24.23;22.35;;;17.60;99.90;;;;;;5031547;28;20042;-81
2023/07/29 05:10:03;;;;;;;28.27;26.27;;;17.70;99.90;;;;;;5015147;28;20418;-82
2023/07/29 05:12:29;;;;;;;8.93;6.93;;;17.70;99.90;;;;;;5015116;28;20048;-81
2023/07/29 05:14:54;;;;;;;8.32;7.28;;;17.70;99.90;;;;;;5032641;28;20038;-82
2023/07/29 05:17:21;;;;;;;10.70;7.00;;;17.60;99.90;;;;;;5014641;28;20037;-81
2023/07/29 05:19:47;;;;;;;8.52;6.63;;;17.70;99.90;;;;;;5031186;28;20050;-82
2023/07/29 05:22:12;;;;;;;10.27;7.25;;;17.60;99.90;;;;;;5031280;28;20427;-82
2023/07/29 05:24:38;;;;;;;11.25;8.95;;;17.50;99.90;;;;;;5031161;28;20118;-82
2023/07/29 05:27:04;;;;;;;17.95;16.38;;;17.60;99.90;;;;;;5031158;28;20029;-82
2023/07/29 05:29:29;;;;;;;12.30;6.93;;;17.70;99.90;;;;;;5031127;28;20037;-81
2023/07/29 05:31:56;;;;;;;8.52;7.35;;;17.60;99.90;;;;;;5014389;28;20041;-81
2023/07/29 05:34:22;;;;;;;11.88;6.55;;;17.60;99.90;;;;;;5031216;28;20041;-81
2023/07/29 05:36:48;;;;;;;8.45;7.47;;;17.60;99.90;;;;;;5031080;28;20041;-82
2023/07/29 05:39:14;;;;;;;10.65;6.75;;;17.60;99.90;;;;;;5014425;28;20040;-82
2023/07/29 05:41:39;;;;;;;12.05;6.82;;;17.70;99.90;;;;;;5030871;28;20154;-81
2023/07/29 05:44:05;;;;;;;11.25;7.40;;;17.70;99.90;;;;;;5030790;28;20405;-81
2023/07/29 05:46:30;;;;;;;12.75;11.70;;;17.80;99.90;;;;;;5031700;28;20041;-81
2023/07/29 05:48:56;;;;;;;8.77;6.95;;;17.80;99.90;;;;;;5030898;28;20072;-82
2023/07/29 05:51:22;;;;;;;9.27;7.05;;;17.90;99.90;;;;;;5031192;28;20033;-81
2023/07/29 05:53:48;;;;;;;8.57;6.78;;;17.90;99.90;;;;;;5030841;28;20083;-82
2023/07/29 05:56:13;;;;;;;9.68;7.30;;;18.00;99.90;;;;;;5030688;28;20045;-82
2023/07/29 05:58:39;;;;;;;7.88;7.13;;;18.00;99.90;;;;;;5031700;28;20092;-82
2023/07/29 06:01:04;;;;;;;14.63;7.47;;;18.10;99.90;;;;;;5013604;28;20467;-82
2023/07/29 06:03:30;;;;;;;7.70;6.18;;;18.10;99.90;;;;;;5014277;28;20037;-82
2023/07/29 06:05:55;;;;;;;8.80;6.80;;;18.10;99.90;;;;;;5030618;28;20053;-81
2023/07/29 06:08:21;;;;;;;8.05;7.30;;;18.10;99.90;;;;;;5031585;28;20480;-82
2023/07/29 06:10:47;;;;;;;10.35;6.15;;;18.10;99.90;;;;;;5030770;28;20061;-81
2023/07/29 06:13:12;;;;;;;9.05;8.18;;;18.20;99.90;;;;;;5013911;28;20091;-82
2023/07/29 06:15:38;;;;;;;11.55;7.57;;;18.20;99.90;;;;;;5030014;28;20037;-82
2023/07/29 06:18:03;;;;;;;11.00;6.88;;;18.30;99.90;;;;;;5030090;28;20492;-81
2023/07/29 06:20:29;;;;;;;8.07;6.50;;;18.40;99.90;;;;;;5030226;28;20049;-82
2023/07/29 06:22:55;;;;;;;10.68;8.85;;;18.40;99.90;;;;;;5013855;28;20041;-82
2023/07/29 06:25:21;;;;;;;9.60;8.75;;;18.50;99.90;;;;;;5030288;28;20069;-82
2023/07/29 06:27:46;;;;;;;11.38;9.32;;;18.60;99.90;;;;;;5030190;28;20082;-82
2023/07/29 06:30:12;;;;;;;11.68;8.02;;;18.70;99.90;;;;;;5030209;28;20073;-82
2023/07/29 06:32:37;;;;;;;11.38;10.00;;;18.70;99.90;;;;;;5031559;28;20062;-81
2023/07/29 06:35:03;;;;;;;10.43;9.52;;;18.80;99.90;;;;;;5030253;28;20038;-81
2023/07/29 06:37:29;;;;;;;9.60;8.65;;;19.00;99.90;;;;;;5013609;28;20041;-82
2023/07/29 06:39:54;;;;;;;9.88;8.68;;;19.70;99.90;;;;;;5030221;28;20092;-82
2023/07/29 06:42:20;;;;;;;12.82;11.65;;;20.80;99.90;;;;;;5029513;28;20125;-82
2023/07/29 06:44:46;;;;;;;26.77;24.67;;;22.20;99.90;;;;;;5014190;28;20411;-82
2023/07/29 06:47:12;;;;;;;34.67;32.25;;;23.50;99.90;;;;;;5031461;28;20084;-82
2023/07/29 06:49:37;;;;;;;47.58;44.55;;;24.30;99.90;;;;;;5031456;28;20046;-82
2023/07/29 06:52:03;;;;;;;69.80;65.82;;;24.40;99.90;;;;;;5030028;28;20518;-82
2023/07/29 06:54:29;;;;;;;77.63;72.72;;;24.10;99.90;;;;;;5031256;28;20040;-82
2023/07/29 06:56:55;;;;;;;69.05;64.90;;;23.70;99.90;;;;;;5030683;28;20057;-82
2023/07/29 06:59:20;;;;;;;69.53;65.30;;;23.20;99.90;;;;;;5030328;28;20060;-82
2023/07/29 07:01:46;;;;;;;67.45;63.30;;;22.90;99.90;;;;;;5031341;28;20068;-82
2023/07/29 07:04:12;;;;;;;56.88;53.35;;;22.70;99.90;;;;;;5033938;28;20355;-82
2023/07/29 07:06:37;;;;;;;58.72;55.00;;;22.50;99.90;;;;;;5033886;28;20488;-82
2023/07/29 07:09:03;;;;;;;75.40;68.63;;;22.40;99.90;;;;;;5035076;28;20056;-82
2023/07/29 07:11:29;;;;;;;57.97;53.85;;;22.50;99.90;;;;;;5033148;28;20042;-82
2023/07/29 07:13:54;;;;;;;80.10;74.88;;;22.50;99.90;;;;;;5033976;28;20492;-82
2023/07/29 07:16:20;;;;;;;61.70;57.65;;;22.50;99.90;;;;;;5035058;28;20033;-83
2023/07/29 07:18:46;;;;;;;77.57;73.15;;;22.70;99.90;;;;;;5034599;28;20057;-82
2023/07/29 07:21:11;;;;;;;63.53;59.30;;;22.80;99.90;;;;;;5033554;28;20045;-82
2023/07/29 07:23:39;;;;;;;67.13;62.95;;;22.70;99.90;;;;;;5033467;28;20136;-82
2023/07/29 07:26:05;;;;;;;52.58;49.30;;;22.40;99.90;;;;;;5032941;28;20048;-82
2023/07/29 07:28:30;;;;;;;53.42;50.25;;;22.00;99.90;;;;;;5034890;28;20033;-82
2023/07/29 07:30:56;;;;;;;48.75;45.72;;;21.80;99.90;;;;;;5033475;28;20108;-83
2023/07/29 07:33:22;;;;;;;36.95;34.58;;;21.60;99.90;;;;;;5033465;28;20061;-82
2023/07/29 07:35:48;;;;;;;39.55;36.78;;;21.60;99.90;;;;;;5034572;28;20038;-82
2023/07/29 07:38:13;;;;;;;42.42;39.55;;;21.70;99.90;;;;;;5033289;28;20120;-82
2023/07/29 07:40:39;;;;;;;41.72;39.00;;;21.80;99.90;;;;;;5016270;28;20427;-82
2023/07/29 07:43:05;;;;;;;51.28;47.97;;;22.00;99.90;;;;;;5016648;28;20049;-82
2023/07/29 07:45:32;;;;;;;62.30;58.22;;;22.20;99.90;;;;;;5033111;28;20040;-83
2023/07/29 07:47:58;;;;;;;82.75;77.78;;;22.70;99.90;;;;;;5032909;28;20081;-82
2023/07/29 07:50:24;;;;;;;92.43;87.13;;;23.50;99.90;;;;;;5016564;28;20041;-82
2023/07/29 07:52:49;;;;;;;104.35;97.82;;;23.80;99.90;;;;;;5033243;28;20564;-82
2023/07/29 07:55:15;;;;;;;148.25;139.73;;;24.00;99.90;;;;;;5033593;28;20033;-83
2023/07/29 07:57:41;;;;;;;153.40;144.20;;;23.90;99.90;;;;;;5033165;28;20071;-83
2023/07/29 08:00:07;;;;;;;147.05;138.00;;;24.00;99.90;;;;;;5034555;28;20048;-82
2023/07/29 08:02:32;;;;;;;128.98;120.90;;;24.30;99.90;;;;;;5032944;28;20551;-82
2023/07/29 08:04:58;;;;;;;173.45;163.45;;;23.90;99.90;;;;;;5032696;28;20120;-82
2023/07/29 08:07:24;;;;;;;144.63;131.88;;;24.10;99.90;;;;;;5034006;28;20045;-82
2023/07/29 08:09:49;;;;;;;145.43;136.38;;;23.90;99.90;;;;;;5033313;28;20073;-82
2023/07/29 08:12:15;;;;;;;231.63;216.50;;;23.90;99.90;;;;;;5032819;28;20076;-82
2023/07/29 08:14:40;;;;;;;209.20;196.23;;;24.30;99.90;;;;;;5033131;28;20044;-83
2023/07/29 08:17:06;;;;;;;197.90;185.85;;;25.00;99.90;;;;;;5032740;28;20041;-82
2023/07/29 08:19:32;;;;;;;220.98;207.48;;;25.20;99.90;;;;;;5032372;28;20133;-82
2023/07/29 08:21:58;;;;;;;239.88;224.85;;;24.90;99.90;;;;;;5015773;28;20129;-82
2023/07/29 08:24:25;;;;;;;282.95;264.90;;;25.00;99.90;;;;;;5033078;28;20046;-82
2023/07/29 08:26:53;;;;;;;272.63;255.00;;;25.30;99.90;;;;;;5033970;28;20384;-82
2023/07/29 08:29:19;;;;;;;441.05;411.00;;;25.60;99.90;;;;;;5032558;28;20052;-82
2023/07/29 08:31:44;;;;;;;488.25;454.48;;;25.50;99.90;;;;;;5032366;28;20116;-82
2023/07/29 08:34:10;;;;;;;501.40;466.67;;;25.50;99.90;;;;;;5033519;28;20488;-82
2023/07/29 08:36:36;;;;;;;661.00;611.80;;;25.90;99.90;;;;;;5032084;28;20041;-82
2023/07/29 08:39:01;;;;;;;661.80;612.65;;;26.70;99.90;;;;;;5032776;28;20442;-82
2023/07/29 08:41:37;;;;;;;1999.90;999.90;;;27.10;99.90;;;;;;5032052;28;20041;-82
2023/07/29 08:44:23;;;;;;;1999.90;999.90;;;26.80;99.90;;;;;;5015533;28;20113;-83
2023/07/29 08:46:49;;;;;;;1999.90;999.90;;;26.80;99.90;;;;;;5033373;28;20029;-82
2023/07/29 08:49:18;;;;;;;1999.90;999.90;;;26.70;99.90;;;;;;5031802;28;20030;-83
2023/07/29 08:51:46;;;;;;;1999.90;999.90;;;26.30;99.90;;;;;;5033381;28;20117;-82
2023/07/29 08:54:13;;;;;;;1999.90;999.90;;;25.90;99.90;;;;;;5032893;28;20041;-82
2023/07/29 08:56:40;;;;;;;1999.90;999.90;;;25.80;99.90;;;;;;5032177;28;20059;-83
2023/07/29 08:59:07;;;;;;;1999.90;999.90;;;25.40;99.90;;;;;;5031775;28;20049;-82
2023/07/29 09:01:32;;;;;;;1999.90;999.90;;;24.90;99.90;;;;;;5031927;28;20403;-82
2023/07/29 09:03:58;;;;;;;1999.90;999.90;;;24.70;99.90;;;;;;5031707;28;20044;-82
2023/07/29 09:06:25;;;;;;;1999.90;999.90;;;24.60;99.90;;;;;;5031598;28;20034;-82
2023/07/29 09:08:53;;;;;;;1999.90;999.90;;;24.70;99.90;;;;;;5031238;28;20041;-82
2023/07/29 09:11:19;;;;;;;1958.10;999.90;;;24.60;99.90;;;;;;5015061;28;20057;-82
2023/07/29 09:13:44;;;;;;;1561.95;974.72;;;24.30;99.90;;;;;;5031758;28;20396;-82
2023/07/29 09:16:10;;;;;;;1655.10;994.47;;;24.00;99.90;;;;;;5032675;28;20041;-82
2023/07/29 09:18:36;;;;;;;1184.15;933.08;;;23.80;99.90;;;;;;5031112;28;20153;-82
2023/07/29 09:21:01;;;;;;;1045.88;914.63;;;23.60;99.90;;;;;;5031244;28;20076;-82
2023/07/29 09:23:28;;;;;;;1103.82;948.13;;;23.60;99.90;;;;;;5031055;28;20132;-82
2023/07/29 09:26:03;;;;;;;1584.07;999.90;;;23.80;99.90;;;;;;5031252;28;20392;-82
2023/07/29 09:28:35;;;;;;;1604.40;999.90;;;24.50;99.90;;;;;;5032601;28;20103;-82
2023/07/29 09:31:01;;;;;;;1999.90;999.90;;;25.40;99.90;;;;;;5031223;28;20037;-82
2023/07/29 09:33:28;;;;;;;1999.90;999.90;;;25.60;99.90;;;;;;5032560;28;20045;-82
2023/07/29 09:35:54;;;;;;;1999.90;999.90;;;25.50;99.90;;;;;;5032482;28;20052;-82
2023/07/29 09:38:29;;;;;;;1497.93;999.90;;;25.20;99.90;;;;;;5030736;28;20037;-82
2023/07/29 09:40:58;;;;;;;1999.90;999.90;;;25.10;99.90;;;;;;5030924;28;20041;-82
2023/07/29 09:43:32;;;;;;;1999.90;999.90;;;25.00;99.90;;;;;;5031111;28;20124;-82
2023/07/29 09:46:02;;;;;;;1999.90;999.90;;;25.00;99.90;;;;;;5031285;28;20388;-82
2023/07/29 09:48:30;;;;;;;1999.90;999.90;;;24.90;99.90;;;;;;5030885;28;20128;-82
2023/07/29 09:50:56;;;;;;;1999.90;999.90;;;25.10;99.90;;;;;;5030354;28;20044;-83
2023/07/29 09:53:22;;;;;;;1999.90;999.90;;;25.50;99.90;;;;;;5030667;28;20132;-82
2023/07/29 09:55:48;;;;;;;1999.90;999.90;;;25.60;99.90;;;;;;5014242;28;20041;-82
2023/07/29 09:58:14;;;;;;;1999.90;999.90;;;25.50;99.90;;;;;;5030901;28;20055;-82
2023/07/29 10:00:40;;;;;;;1999.90;999.90;;;25.40;99.90;;;;;;5030651;28;20132;-82
2023/07/29 10:03:07;;;;;;;1999.90;999.90;;;25.10;99.90;;;;;;5030561;28;20495;-83
2023/07/29 10:05:35;;;;;;;1999.90;999.90;;;25.10;99.90;;;;;;5030131;28;20112;-82
2023/07/29 10:08:02;;;;;;;1999.90;999.90;;;25.50;99.90;;;;;;5031819;28;20044;-82
2023/07/29 10:10:29;;;;;;;1999.90;999.90;;;25.70;99.90;;;;;;5030398;28;20056;-82
2023/07/29 10:12:54;;;;;;;1999.90;999.90;;;25.50;99.90;;;;;;5030697;28;20050;-82
2023/07/29 10:15:21;;;;;;;1999.90;999.90;;;25.20;99.90;;;;;;5013967;28;20132;-82
2023/07/29 10:17:47;;;;;;;1999.90;999.90;;;25.10;99.90;;;;;;5030255;28;20142;-82
2023/07/29 10:20:13;;;;;;;1999.90;999.90;;;25.00;99.90;;;;;;5031143;28;20041;-82
2023/07/29 10:22:41;;;;;;;1999.90;999.90;;;25.00;99.90;;;;;;5030350;28;20056;-82
2023/07/29 10:25:18;;;;;;;1999.90;999.90;;;25.00;99.90;;;;;;5013847;28;20041;-83
2023/07/29 10:28:04;;;;;;;1999.90;999.90;;;25.00;99.90;;;;;;5030309;28;20127;-82
2023/07/29 10:30:31;;;;;;;1999.90;999.90;;;25.00;99.90;;;;;;5030495;28;20052;-82
2023/07/29 10:33:01;;;;;;;1999.90;999.90;;;24.80;99.90;;;;;;5013807;28;20555;-82
2023/07/29 10:35:27;;;;;;;1999.90;999.90;;;24.80;99.90;;;;;;5029684;28;20030;-82
2023/07/29 10:37:53;;;;;;;1999.90;999.90;;;24.80;99.90;;;;;;5029907;28;20037;-82
2023/07/29 10:40:22;;;;;;;1999.90;999.90;;;25.10;99.90;;;;;;5013479;28;20049;-82
2023/07/29 10:43:02;;;;;;;1999.90;999.90;;;25.20;99.90;;;;;;5013687;28;20049;-82
2023/07/29 10:45:40;;;;;;;1999.90;999.90;;;25.30;99.90;;;;;;5029965;28;20103;-82
2023/07/29 10:48:33;;;;;;;1999.90;999.90;;;25.50;99.90;;;;;;5029982;28;20048;-82
2023/07/29 10:51:25;;;;;;;1999.90;999.90;;;25.70;99.90;;;;;;5029665;28;20471;-82
2023/07/29 10:54:12;;;;;;;1999.90;999.90;;;26.00;99.90;;;;;;5031334;28;20037;-82
2023/07/29 10:56:41;;;;;;;1999.90;999.90;;;26.30;99.90;;;;;;5029867;28;20056;-83
2023/07/29 10:59:14;;;;;;;1999.90;999.90;;;26.50;99.90;;;;;;5029927;28;20128;-82
2023/07/29 11:01:44;;;;;;;1999.90;921.55;;;26.40;99.90;;;;;;5029949;28;20049;-82
2023/07/29 11:04:26;;;;;;;1999.90;995.97;;;26.10;99.90;;;;;;5013156;28;20507;-82
2023/07/29 11:07:28;;;;;;;1999.90;939.00;;;26.00;99.90;;;;;;5029818;28;20127;-82
2023/07/29 11:09:58;;;;;;;1999.90;992.45;;;25.90;99.90;;;;;;5024216;28;20046;-83
2023/07/29 11:12:53;;;;;;;1999.90;961.70;;;25.80;99.90;;;;;;5029956;28;20037;-83
2023/07/29 11:15:23;;;;;;;1999.90;999.90;;;25.60;99.90;;;;;;5031067;28;20041;-82
2023/07/29 11:17:57;;;;;;;1999.90;999.90;;;25.50;99.90;;;;;;5013081;28;20056;-82
2023/07/29 11:20:26;;;;;;;1999.90;999.90;;;24.90;99.90;;;;;;5030876;28;20484;-82
2023/07/29 11:22:57;;;;;;;1999.90;999.90;;;24.30;99.90;;;;;;5013511;28;20041;-82
2023/07/29 11:25:24;;;;;;;1999.90;999.90;;;24.30;99.90;;;;;;5029726;28;20065;-82
2023/07/29 11:27:52;;;;;;;1999.90;999.90;;;24.30;99.90;;;;;;5030851;28;20038;-82
2023/07/29 11:30:17;;;;;;;1999.90;999.90;;;24.70;99.90;;;;;;5013186;28;20033;-82
2023/07/29 11:32:44;;;;;;;1999.90;999.90;;;25.10;99.90;;;;;;5013015;28;20542;-83
2023/07/29 11:35:14;;;;;;;1999.90;851.22;;;25.40;99.90;;;;;;5029726;28;20041;-82
2023/07/29 11:37:41;;;;;;;1999.90;989.00;;;25.50;99.90;;;;;;5029654;28;20091;-83
2023/07/29 11:40:10;;;;;;;1999.90;999.63;;;25.50;99.90;;;;;;5029821;28;20033;-83
2023/07/29 11:42:37;;;;;;;1999.90;959.78;;;25.70;99.90;;;;;;5031077;28;20057;-83
2023/07/29 11:45:06;;;;;;;1999.90;999.90;;;25.70;99.90;;;;;;5029697;28;20514;-82
2023/07/29 11:47:35;;;;;;;1999.90;999.90;;;25.70;99.90;;;;;;5030515;28;20455;-83
2023/07/29 11:50:02;;;;;;;1999.90;999.90;;;25.80;99.90;;;;;;5032490;28;20064;-83
2023/07/29 11:52:28;;;;;;;1999.90;999.90;;;26.10;99.90;;;;;;5032980;28;20098;-83
2023/07/29 11:54:54;;;;;;;1999.90;961.42;;;26.30;99.90;;;;;;5032868;28;20048;-83
2023/07/29 11:57:20;;;;;;;1999.90;932.97;;;26.50;99.90;;;;;;5032849;28;20045;-83
2023/07/29 11:59:47;;;;;;;1999.90;527.42;;;26.50;99.90;;;;;;5032832;28;20623;-82
2023/07/29 12:02:14;;;;;;;1999.90;999.90;;;26.50;99.90;;;;;;5015921;28;20041;-83
2023/07/29 12:04:41;;;;;;;1999.90;906.85;;;26.50;99.90;;;;;;5034106;28;20029;-82
2023/07/29 12:07:07;;;;;;;1999.90;962.72;;;26.40;99.90;;;;;;5033002;28;20507;-83
2023/07/29 12:09:34;;;;;;;1999.90;993.95;;;26.50;99.90;;;;;;5033884;28;20160;-83
2023/07/29 12:12:00;;;;;;;1999.90;765.95;;;26.30;99.90;;;;;;5032624;28;20033;-82
2023/07/29 12:14:28;;;;;;;1999.90;999.90;;;25.90;99.90;;;;;;5032788;28;20128;-82
2023/07/29 12:16:53;;;;;;;1872.80;999.90;;;25.60;99.90;;;;;;5032405;28;20130;-83
2023/07/29 12:19:21;;;;;;;1383.75;999.90;;;25.20;99.90;;;;;;5033614;28;20465;-82